sensor_id;sensor_type;location;lat;lon;timestamp;P1;durP1;ratioP1;P2;durP2;ratioP2
16954;SDS011;8594;52.052;8.354;2023-12-28T00:01:49;9.07;;;2.50;;
16954;SDS011;8594;52.052;8.354;2023-12-28T00:04:16;5.83;;;2.30;;
16954;SDS011;8594;52.052;8.354;2023-12-28T00:06:44;3.87;;;2.00;;
16954;SDS011;8594;52.052;8.354;2023-12-28T00:09:11;4.30;;;1.97;;
16954;SDS011;8594;52.052;8.354;2023-12-28T00:11:38;3.27;;;2.30;;
16954;SDS011;8594;52.052;8.354;2023-12-28T00:14:05;5.90;;;1.90;;
16954;SDS011;8594;52.052;8.354;2023-12-28T00:16:31;4.43;;;2.13;;
16954;SDS011;8594;52.052;8.354;2023-12-28T00:19:01;3.70;;;2.23;;
16954;SDS011;8594;52.052;8.354;2023-12-28T00:21:28;3.97;;;2.20;;
16954;SDS011;8594;52.052;8.354;2023-12-28T00:23:56;4.97;;;2.77;;
16954;SDS011;8594;52.052;8.354;2023-12-28T00:26:23;5.03;;;2.13;;
16954;SDS011;8594;52.052;8.354;2023-12-28T00:28:50;3.37;;;2.20;;
16954;SDS011;8594;52.052;8.354;2023-12-28T00:31:17;5.17;;;2.00;;
16954;SDS011;8594;52.052;8.354;2023-12-28T00:33:43;4.37;;;2.53;;
16954;SDS011;8594;52.052;8.354;2023-12-28T00:36:10;6.30;;;2.37;;
16954;SDS011;8594;52.052;8.354;2023-12-28T00:38:37;6.80;;;2.47;;
16954;SDS011;8594;52.052;8.354;2023-12-28T00:41:05;4.30;;;2.33;;
16954;SDS011;8594;52.052;8.354;2023-12-28T00:43:32;4.73;;;2.10;;
16954;SDS011;8594;52.052;8.354;2023-12-28T00:45:58;3.87;;;2.17;;
16954;SDS011;8594;52.052;8.354;2023-12-28T00:48:25;3.83;;;2.63;;
16954;SDS011;8594;52.052;8.354;2023-12-28T00:50:52;4.27;;;2.50;;
16954;SDS011;8594;52.052;8.354;2023-12-28T00:53:20;4.20;;;2.37;;
16954;SDS011;8594;52.052;8.354;2023-12-28T00:55:47;5.07;;;2.47;;
16954;SDS011;8594;52.052;8.354;2023-12-28T00:58:16;5.70;;;2.60;;
16954;SDS011;8594;52.052;8.354;2023-12-28T01:00:42;3.73;;;2.50;;
16954;SDS011;8594;52.052;8.354;2023-12-28T01:03:09;4.77;;;2.77;;
16954;SDS011;8594;52.052;8.354;2023-12-28T01:05:36;5.73;;;2.40;;
16954;SDS011;8594;52.052;8.354;2023-12-28T01:08:03;3.47;;;2.40;;
16954;SDS011;8594;52.052;8.354;2023-12-28T01:10:30;5.23;;;2.60;;
16954;SDS011;8594;52.052;8.354;2023-12-28T01:12:57;7.47;;;2.73;;
16954;SDS011;8594;52.052;8.354;2023-12-28T01:15:25;5.37;;;2.60;;
16954;SDS011;8594;52.052;8.354;2023-12-28T01:17:51;5.07;;;2.70;;
16954;SDS011;8594;52.052;8.354;2023-12-28T01:20:18;6.13;;;2.60;;
16954;SDS011;8594;52.052;8.354;2023-12-28T01:22:45;5.43;;;2.67;;
16954;SDS011;8594;52.052;8.354;2023-12-28T01:25:12;4.47;;;2.73;;
16954;SDS011;8594;52.052;8.354;2023-12-28T01:27:39;4.67;;;2.57;;
16954;SDS011;8594;52.052;8.354;2023-12-28T01:30:06;5.90;;;2.40;;
16954;SDS011;8594;52.052;8.354;2023-12-28T01:32:35;4.17;;;2.40;;
16954;SDS011;8594;52.052;8.354;2023-12-28T01:35:02;11.17;;;2.50;;
16954;SDS011;8594;52.052;8.354;2023-12-28T01:37:29;5.90;;;2.77;;
16954;SDS011;8594;52.052;8.354;2023-12-28T01:39:58;2.60;;;2.03;;
16954;SDS011;8594;52.052;8.354;2023-12-28T01:42:25;6.03;;;2.57;;
16954;SDS011;8594;52.052;8.354;2023-12-28T01:44:55;6.53;;;2.70;;
16954;SDS011;8594;52.052;8.354;2023-12-28T01:47:22;6.60;;;2.70;;
16954;SDS011;8594;52.052;8.354;2023-12-28T01:49:50;4.97;;;2.57;;
16954;SDS011;8594;52.052;8.354;2023-12-28T01:52:17;5.63;;;2.63;;
16954;SDS011;8594;52.052;8.354;2023-12-28T01:54:44;4.27;;;2.60;;
16954;SDS011;8594;52.052;8.354;2023-12-28T01:57:11;5.50;;;2.63;;
16954;SDS011;8594;52.052;8.354;2023-12-28T01:59:39;3.50;;;2.40;;
16954;SDS011;8594;52.052;8.354;2023-12-28T02:02:07;4.53;;;3.00;;
16954;SDS011;8594;52.052;8.354;2023-12-28T02:04:34;6.70;;;2.50;;
16954;SDS011;8594;52.052;8.354;2023-12-28T02:07:03;3.83;;;2.40;;
16954;SDS011;8594;52.052;8.354;2023-12-28T02:09:31;6.23;;;2.97;;
16954;SDS011;8594;52.052;8.354;2023-12-28T02:11:58;4.57;;;2.73;;
16954;SDS011;8594;52.052;8.354;2023-12-28T02:14:25;4.50;;;2.57;;
16954;SDS011;8594;52.052;8.354;2023-12-28T02:16:54;6.93;;;3.07;;
16954;SDS011;8594;52.052;8.354;2023-12-28T02:19:37;4.03;;;2.60;;
16954;SDS011;8594;52.052;8.354;2023-12-28T02:22:11;6.63;;;2.80;;
16954;SDS011;8594;52.052;8.354;2023-12-28T02:25:03;3.80;;;2.13;;
16954;SDS011;8594;52.052;8.354;2023-12-28T02:27:32;5.73;;;2.60;;
16954;SDS011;8594;52.052;8.354;2023-12-28T02:30:02;4.70;;;2.83;;
16954;SDS011;8594;52.052;8.354;2023-12-28T02:32:33;5.60;;;2.53;;
16954;SDS011;8594;52.052;8.354;2023-12-28T02:35:13;5.10;;;2.80;;
16954;SDS011;8594;52.052;8.354;2023-12-28T02:37:46;5.37;;;2.93;;
16954;SDS011;8594;52.052;8.354;2023-12-28T02:40:19;4.50;;;2.47;;
16954;SDS011;8594;52.052;8.354;2023-12-28T02:42:48;3.50;;;2.50;;
16954;SDS011;8594;52.052;8.354;2023-12-28T02:45:15;3.67;;;2.57;;
16954;SDS011;8594;52.052;8.354;2023-12-28T02:47:43;4.30;;;2.37;;
16954;SDS011;8594;52.052;8.354;2023-12-28T02:50:10;5.00;;;2.80;;
16954;SDS011;8594;52.052;8.354;2023-12-28T02:52:37;5.03;;;2.60;;
16954;SDS011;8594;52.052;8.354;2023-12-28T02:55:04;4.23;;;2.57;;
16954;SDS011;8594;52.052;8.354;2023-12-28T02:57:33;4.67;;;2.60;;
16954;SDS011;8594;52.052;8.354;2023-12-28T03:00:03;5.23;;;2.80;;
16954;SDS011;8594;52.052;8.354;2023-12-28T03:02:33;4.73;;;2.57;;
16954;SDS011;8594;52.052;8.354;2023-12-28T03:05:02;8.27;;;3.57;;
16954;SDS011;8594;52.052;8.354;2023-12-28T03:07:29;6.83;;;2.53;;
16954;SDS011;8594;52.052;8.354;2023-12-28T03:09:56;3.77;;;2.73;;
16954;SDS011;8594;52.052;8.354;2023-12-28T03:12:23;5.43;;;2.97;;
16954;SDS011;8594;52.052;8.354;2023-12-28T03:14:52;8.40;;;2.83;;
16954;SDS011;8594;52.052;8.354;2023-12-28T03:17:18;5.23;;;2.90;;
16954;SDS011;8594;52.052;8.354;2023-12-28T03:19:45;9.10;;;3.13;;
16954;SDS011;8594;52.052;8.354;2023-12-28T03:22:12;4.67;;;3.10;;
16954;SDS011;8594;52.052;8.354;2023-12-28T03:24:39;5.97;;;3.00;;
16954;SDS011;8594;52.052;8.354;2023-12-28T03:27:06;4.23;;;2.50;;
16954;SDS011;8594;52.052;8.354;2023-12-28T03:29:33;4.57;;;2.97;;
16954;SDS011;8594;52.052;8.354;2023-12-28T03:32:01;8.27;;;3.17;;
16954;SDS011;8594;52.052;8.354;2023-12-28T03:34:28;4.83;;;2.90;;
16954;SDS011;8594;52.052;8.354;2023-12-28T03:36:55;4.33;;;2.67;;
16954;SDS011;8594;52.052;8.354;2023-12-28T03:39:22;5.40;;;3.30;;
16954;SDS011;8594;52.052;8.354;2023-12-28T03:41:49;4.80;;;2.77;;
16954;SDS011;8594;52.052;8.354;2023-12-28T03:44:17;6.60;;;3.13;;
16954;SDS011;8594;52.052;8.354;2023-12-28T03:46:45;5.73;;;3.07;;
16954;SDS011;8594;52.052;8.354;2023-12-28T03:49:16;6.27;;;3.03;;
16954;SDS011;8594;52.052;8.354;2023-12-28T03:51:43;5.00;;;3.00;;
16954;SDS011;8594;52.052;8.354;2023-12-28T03:54:09;5.40;;;2.90;;
16954;SDS011;8594;52.052;8.354;2023-12-28T03:56:36;6.37;;;3.03;;
16954;SDS011;8594;52.052;8.354;2023-12-28T03:59:04;12.27;;;3.07;;
16954;SDS011;8594;52.052;8.354;2023-12-28T04:01:31;5.00;;;3.07;;
16954;SDS011;8594;52.052;8.354;2023-12-28T04:03:58;6.47;;;3.13;;
16954;SDS011;8594;52.052;8.354;2023-12-28T04:06:26;6.50;;;2.97;;
16954;SDS011;8594;52.052;8.354;2023-12-28T04:08:54;5.53;;;3.07;;
16954;SDS011;8594;52.052;8.354;2023-12-28T04:11:20;5.43;;;3.13;;
16954;SDS011;8594;52.052;8.354;2023-12-28T04:13:47;5.63;;;2.90;;
16954;SDS011;8594;52.052;8.354;2023-12-28T04:16:14;4.27;;;2.90;;
16954;SDS011;8594;52.052;8.354;2023-12-28T04:18:41;4.90;;;2.80;;
16954;SDS011;8594;52.052;8.354;2023-12-28T04:21:09;5.27;;;2.87;;
16954;SDS011;8594;52.052;8.354;2023-12-28T04:23:37;5.53;;;3.10;;
16954;SDS011;8594;52.052;8.354;2023-12-28T04:26:06;6.47;;;2.80;;
16954;SDS011;8594;52.052;8.354;2023-12-28T04:28:33;9.10;;;2.70;;
16954;SDS011;8594;52.052;8.354;2023-12-28T04:31:01;6.63;;;3.00;;
16954;SDS011;8594;52.052;8.354;2023-12-28T04:33:29;6.07;;;2.87;;
16954;SDS011;8594;52.052;8.354;2023-12-28T04:35:57;6.00;;;2.80;;
16954;SDS011;8594;52.052;8.354;2023-12-28T04:38:27;7.37;;;2.80;;
16954;SDS011;8594;52.052;8.354;2023-12-28T04:40:55;6.47;;;2.70;;
16954;SDS011;8594;52.052;8.354;2023-12-28T04:43:21;6.00;;;3.17;;
16954;SDS011;8594;52.052;8.354;2023-12-28T04:45:49;7.70;;;2.80;;
16954;SDS011;8594;52.052;8.354;2023-12-28T04:48:14;6.70;;;3.20;;
16954;SDS011;8594;52.052;8.354;2023-12-28T04:50:45;4.83;;;3.17;;
16954;SDS011;8594;52.052;8.354;2023-12-28T04:53:13;6.63;;;3.00;;
16954;SDS011;8594;52.052;8.354;2023-12-28T04:55:39;4.37;;;2.37;;
16954;SDS011;8594;52.052;8.354;2023-12-28T04:58:07;5.80;;;2.60;;
16954;SDS011;8594;52.052;8.354;2023-12-28T05:00:36;7.63;;;2.80;;
16954;SDS011;8594;52.052;8.354;2023-12-28T05:03:02;4.90;;;2.50;;
16954;SDS011;8594;52.052;8.354;2023-12-28T05:05:30;5.17;;;2.83;;
16954;SDS011;8594;52.052;8.354;2023-12-28T05:07:57;4.60;;;2.80;;
16954;SDS011;8594;52.052;8.354;2023-12-28T05:10:23;4.47;;;2.47;;
16954;SDS011;8594;52.052;8.354;2023-12-28T05:12:50;7.13;;;3.03;;
16954;SDS011;8594;52.052;8.354;2023-12-28T05:15:18;6.47;;;2.60;;
16954;SDS011;8594;52.052;8.354;2023-12-28T05:17:45;6.83;;;2.80;;
16954;SDS011;8594;52.052;8.354;2023-12-28T05:20:12;4.17;;;2.57;;
16954;SDS011;8594;52.052;8.354;2023-12-28T05:22:38;4.20;;;2.53;;
16954;SDS011;8594;52.052;8.354;2023-12-28T05:25:05;4.37;;;2.33;;
16954;SDS011;8594;52.052;8.354;2023-12-28T05:27:32;8.17;;;3.00;;
16954;SDS011;8594;52.052;8.354;2023-12-28T05:29:59;5.27;;;2.57;;
16954;SDS011;8594;52.052;8.354;2023-12-28T05:32:27;7.47;;;2.73;;
16954;SDS011;8594;52.052;8.354;2023-12-28T05:34:53;7.63;;;2.50;;
16954;SDS011;8594;52.052;8.354;2023-12-28T05:37:20;3.33;;;2.30;;
16954;SDS011;8594;52.052;8.354;2023-12-28T05:39:47;4.90;;;2.50;;
16954;SDS011;8594;52.052;8.354;2023-12-28T05:42:13;6.03;;;2.40;;
16954;SDS011;8594;52.052;8.354;2023-12-28T05:44:40;6.50;;;2.37;;
16954;SDS011;8594;52.052;8.354;2023-12-28T05:47:07;5.50;;;2.47;;
16954;SDS011;8594;52.052;8.354;2023-12-28T05:49:35;4.63;;;2.50;;
16954;SDS011;8594;52.052;8.354;2023-12-28T05:52:03;5.23;;;2.30;;
16954;SDS011;8594;52.052;8.354;2023-12-28T05:54:30;3.10;;;2.33;;
16954;SDS011;8594;52.052;8.354;2023-12-28T05:56:57;4.17;;;2.67;;
16954;SDS011;8594;52.052;8.354;2023-12-28T05:59:24;4.77;;;2.13;;
16954;SDS011;8594;52.052;8.354;2023-12-28T06:01:51;4.97;;;2.77;;
16954;SDS011;8594;52.052;8.354;2023-12-28T06:04:18;3.97;;;2.40;;
16954;SDS011;8594;52.052;8.354;2023-12-28T06:06:46;5.90;;;2.70;;
16954;SDS011;8594;52.052;8.354;2023-12-28T06:09:12;4.17;;;2.47;;
16954;SDS011;8594;52.052;8.354;2023-12-28T06:11:39;3.50;;;2.37;;
16954;SDS011;8594;52.052;8.354;2023-12-28T06:14:06;7.17;;;2.47;;
16954;SDS011;8594;52.052;8.354;2023-12-28T06:16:33;6.67;;;2.40;;
16954;SDS011;8594;52.052;8.354;2023-12-28T06:19:00;5.50;;;2.37;;
16954;SDS011;8594;52.052;8.354;2023-12-28T06:21:27;3.07;;;2.27;;
16954;SDS011;8594;52.052;8.354;2023-12-28T06:23:56;6.83;;;2.20;;
16954;SDS011;8594;52.052;8.354;2023-12-28T06:26:23;6.37;;;2.30;;
16954;SDS011;8594;52.052;8.354;2023-12-28T06:28:50;5.63;;;2.37;;
16954;SDS011;8594;52.052;8.354;2023-12-28T06:31:17;4.33;;;2.20;;
16954;SDS011;8594;52.052;8.354;2023-12-28T06:33:44;2.97;;;2.00;;
16954;SDS011;8594;52.052;8.354;2023-12-28T06:36:11;4.53;;;2.20;;
16954;SDS011;8594;52.052;8.354;2023-12-28T06:38:38;5.17;;;2.27;;
16954;SDS011;8594;52.052;8.354;2023-12-28T06:41:11;5.30;;;2.17;;
16954;SDS011;8594;52.052;8.354;2023-12-28T06:43:38;7.63;;;2.40;;
16954;SDS011;8594;52.052;8.354;2023-12-28T06:46:05;7.00;;;1.93;;
16954;SDS011;8594;52.052;8.354;2023-12-28T06:48:32;6.23;;;2.10;;
16954;SDS011;8594;52.052;8.354;2023-12-28T06:50:58;6.03;;;1.90;;
16954;SDS011;8594;52.052;8.354;2023-12-28T06:53:25;3.80;;;2.00;;
16954;SDS011;8594;52.052;8.354;2023-12-28T06:55:52;4.23;;;2.13;;
16954;SDS011;8594;52.052;8.354;2023-12-28T06:58:20;5.63;;;2.13;;
16954;SDS011;8594;52.052;8.354;2023-12-28T07:00:46;7.50;;;2.47;;
16954;SDS011;8594;52.052;8.354;2023-12-28T07:03:13;6.73;;;2.47;;
16954;SDS011;8594;52.052;8.354;2023-12-28T07:05:40;7.33;;;2.00;;
16954;SDS011;8594;52.052;8.354;2023-12-28T07:08:07;4.37;;;2.13;;
16954;SDS011;8594;52.052;8.354;2023-12-28T07:10:34;6.97;;;2.13;;
16954;SDS011;8594;52.052;8.354;2023-12-28T07:13:01;4.17;;;2.00;;
16954;SDS011;8594;52.052;8.354;2023-12-28T07:15:29;4.47;;;2.10;;
16954;SDS011;8594;52.052;8.354;2023-12-28T07:17:56;4.10;;;2.13;;
16954;SDS011;8594;52.052;8.354;2023-12-28T07:20:22;4.60;;;2.20;;
16954;SDS011;8594;52.052;8.354;2023-12-28T07:22:49;3.47;;;2.03;;
16954;SDS011;8594;52.052;8.354;2023-12-28T07:25:16;4.90;;;1.93;;
16954;SDS011;8594;52.052;8.354;2023-12-28T07:27:43;4.30;;;2.07;;
16954;SDS011;8594;52.052;8.354;2023-12-28T07:30:10;4.53;;;2.07;;
16954;SDS011;8594;52.052;8.354;2023-12-28T07:32:39;5.33;;;2.17;;
16954;SDS011;8594;52.052;8.354;2023-12-28T07:35:06;4.43;;;2.30;;
16954;SDS011;8594;52.052;8.354;2023-12-28T07:37:33;5.33;;;2.00;;
16954;SDS011;8594;52.052;8.354;2023-12-28T07:40:00;2.97;;;2.07;;
16954;SDS011;8594;52.052;8.354;2023-12-28T07:42:28;5.00;;;2.20;;
16954;SDS011;8594;52.052;8.354;2023-12-28T07:44:54;2.63;;;1.93;;
16954;SDS011;8594;52.052;8.354;2023-12-28T07:47:21;6.30;;;1.90;;
16954;SDS011;8594;52.052;8.354;2023-12-28T07:49:49;3.53;;;2.53;;
16954;SDS011;8594;52.052;8.354;2023-12-28T07:52:16;4.13;;;2.10;;
16954;SDS011;8594;52.052;8.354;2023-12-28T07:54:43;5.70;;;2.50;;
16954;SDS011;8594;52.052;8.354;2023-12-28T07:57:10;4.20;;;2.13;;
16954;SDS011;8594;52.052;8.354;2023-12-28T07:59:35;4.93;;;1.97;;
16954;SDS011;8594;52.052;8.354;2023-12-28T08:02:02;6.63;;;2.23;;
16954;SDS011;8594;52.052;8.354;2023-12-28T08:04:29;6.67;;;2.20;;
16954;SDS011;8594;52.052;8.354;2023-12-28T08:06:58;3.43;;;1.90;;
16954;SDS011;8594;52.052;8.354;2023-12-28T08:09:25;5.97;;;1.70;;
16954;SDS011;8594;52.052;8.354;2023-12-28T08:11:51;3.27;;;1.97;;
16954;SDS011;8594;52.052;8.354;2023-12-28T08:14:18;4.43;;;2.20;;
16954;SDS011;8594;52.052;8.354;2023-12-28T08:16:45;3.23;;;2.10;;
16954;SDS011;8594;52.052;8.354;2023-12-28T08:19:12;6.13;;;2.10;;
16954;SDS011;8594;52.052;8.354;2023-12-28T08:21:39;4.83;;;2.20;;
16954;SDS011;8594;52.052;8.354;2023-12-28T08:24:07;5.57;;;1.93;;
16954;SDS011;8594;52.052;8.354;2023-12-28T08:26:33;9.60;;;2.30;;
16954;SDS011;8594;52.052;8.354;2023-12-28T08:29:00;5.13;;;2.17;;
16954;SDS011;8594;52.052;8.354;2023-12-28T08:31:27;3.33;;;2.20;;
16954;SDS011;8594;52.052;8.354;2023-12-28T08:33:55;4.80;;;1.90;;
16954;SDS011;8594;52.052;8.354;2023-12-28T08:36:22;4.73;;;1.97;;
16954;SDS011;8594;52.052;8.354;2023-12-28T08:38:49;3.10;;;1.90;;
16954;SDS011;8594;52.052;8.354;2023-12-28T08:41:20;4.27;;;2.20;;
16954;SDS011;8594;52.052;8.354;2023-12-28T08:43:49;4.00;;;2.20;;
16954;SDS011;8594;52.052;8.354;2023-12-28T08:46:17;5.47;;;2.53;;
16954;SDS011;8594;52.052;8.354;2023-12-28T08:48:44;7.13;;;2.10;;
16954;SDS011;8594;52.052;8.354;2023-12-28T08:51:10;6.40;;;2.10;;
16954;SDS011;8594;52.052;8.354;2023-12-28T08:53:39;8.97;;;2.57;;
16954;SDS011;8594;52.052;8.354;2023-12-28T08:56:12;6.10;;;1.97;;
16954;SDS011;8594;52.052;8.354;2023-12-28T08:58:43;5.23;;;2.30;;
16954;SDS011;8594;52.052;8.354;2023-12-28T09:01:15;4.30;;;2.17;;
16954;SDS011;8594;52.052;8.354;2023-12-28T09:03:43;9.70;;;2.23;;
16954;SDS011;8594;52.052;8.354;2023-12-28T09:06:11;10.33;;;2.27;;
16954;SDS011;8594;52.052;8.354;2023-12-28T09:08:37;5.67;;;2.10;;
16954;SDS011;8594;52.052;8.354;2023-12-28T09:11:07;5.77;;;2.13;;
16954;SDS011;8594;52.052;8.354;2023-12-28T09:13:37;7.33;;;2.33;;
16954;SDS011;8594;52.052;8.354;2023-12-28T09:16:05;10.67;;;2.27;;
16954;SDS011;8594;52.052;8.354;2023-12-28T09:18:34;5.27;;;2.10;;
16954;SDS011;8594;52.052;8.354;2023-12-28T09:21:02;6.20;;;2.00;;
16954;SDS011;8594;52.052;8.354;2023-12-28T09:23:29;6.93;;;2.33;;
16954;SDS011;8594;52.052;8.354;2023-12-28T09:25:57;9.90;;;4.50;;
16954;SDS011;8594;52.052;8.354;2023-12-28T09:28:23;7.07;;;2.40;;
16954;SDS011;8594;52.052;8.354;2023-12-28T09:30:50;5.43;;;2.10;;
16954;SDS011;8594;52.052;8.354;2023-12-28T09:33:18;6.13;;;2.10;;
16954;SDS011;8594;52.052;8.354;2023-12-28T09:35:45;7.00;;;2.30;;
16954;SDS011;8594;52.052;8.354;2023-12-28T09:38:12;7.00;;;2.50;;
16954;SDS011;8594;52.052;8.354;2023-12-28T09:40:41;9.23;;;2.40;;
16954;SDS011;8594;52.052;8.354;2023-12-28T09:43:09;6.80;;;2.33;;
16954;SDS011;8594;52.052;8.354;2023-12-28T09:45:45;10.57;;;2.30;;
16954;SDS011;8594;52.052;8.354;2023-12-28T09:48:14;7.73;;;2.40;;
16954;SDS011;8594;52.052;8.354;2023-12-28T09:50:44;6.30;;;2.30;;
16954;SDS011;8594;52.052;8.354;2023-12-28T09:53:11;10.53;;;2.57;;
16954;SDS011;8594;52.052;8.354;2023-12-28T09:55:38;11.03;;;2.87;;
16954;SDS011;8594;52.052;8.354;2023-12-28T09:58:05;8.93;;;2.40;;
16954;SDS011;8594;52.052;8.354;2023-12-28T10:00:32;7.43;;;2.23;;
16954;SDS011;8594;52.052;8.354;2023-12-28T10:02:59;11.10;;;2.13;;
16954;SDS011;8594;52.052;8.354;2023-12-28T10:05:28;7.53;;;2.70;;
16954;SDS011;8594;52.052;8.354;2023-12-28T10:07:56;7.27;;;2.10;;
16954;SDS011;8594;52.052;8.354;2023-12-28T10:10:23;9.40;;;2.57;;
16954;SDS011;8594;52.052;8.354;2023-12-28T10:12:49;8.90;;;3.00;;
16954;SDS011;8594;52.052;8.354;2023-12-28T10:15:17;9.53;;;2.47;;
16954;SDS011;8594;52.052;8.354;2023-12-28T10:17:45;11.57;;;2.50;;
16954;SDS011;8594;52.052;8.354;2023-12-28T10:20:13;7.27;;;2.00;;
16954;SDS011;8594;52.052;8.354;2023-12-28T10:22:41;10.13;;;2.30;;
16954;SDS011;8594;52.052;8.354;2023-12-28T10:25:09;10.70;;;2.33;;
16954;SDS011;8594;52.052;8.354;2023-12-28T10:27:37;9.33;;;2.53;;
16954;SDS011;8594;52.052;8.354;2023-12-28T10:30:06;6.97;;;2.20;;
16954;SDS011;8594;52.052;8.354;2023-12-28T10:32:35;8.03;;;2.23;;
16954;SDS011;8594;52.052;8.354;2023-12-28T10:35:02;10.53;;;2.83;;
16954;SDS011;8594;52.052;8.354;2023-12-28T10:37:29;12.30;;;2.33;;
16954;SDS011;8594;52.052;8.354;2023-12-28T10:39:59;16.73;;;3.10;;
16954;SDS011;8594;52.052;8.354;2023-12-28T10:42:29;12.37;;;3.03;;
16954;SDS011;8594;52.052;8.354;2023-12-28T10:45:02;12.47;;;2.63;;
16954;SDS011;8594;52.052;8.354;2023-12-28T10:47:33;15.07;;;2.63;;
16954;SDS011;8594;52.052;8.354;2023-12-28T10:50:08;9.07;;;2.50;;
16954;SDS011;8594;52.052;8.354;2023-12-28T10:52:38;9.53;;;2.30;;
16954;SDS011;8594;52.052;8.354;2023-12-28T10:55:16;13.00;;;3.00;;
16954;SDS011;8594;52.052;8.354;2023-12-28T10:57:57;8.43;;;2.30;;
16954;SDS011;8594;52.052;8.354;2023-12-28T11:00:36;9.90;;;2.40;;
16954;SDS011;8594;52.052;8.354;2023-12-28T11:03:11;10.60;;;2.47;;
16954;SDS011;8594;52.052;8.354;2023-12-28T11:05:44;12.60;;;2.63;;
16954;SDS011;8594;52.052;8.354;2023-12-28T11:08:13;14.60;;;2.63;;
16954;SDS011;8594;52.052;8.354;2023-12-28T11:10:43;11.57;;;2.63;;
16954;SDS011;8594;52.052;8.354;2023-12-28T11:13:11;9.57;;;2.53;;
16954;SDS011;8594;52.052;8.354;2023-12-28T11:15:40;7.47;;;2.20;;
16954;SDS011;8594;52.052;8.354;2023-12-28T11:18:08;8.17;;;2.30;;
16954;SDS011;8594;52.052;8.354;2023-12-28T11:20:35;13.17;;;3.00;;
16954;SDS011;8594;52.052;8.354;2023-12-28T11:23:03;10.53;;;2.37;;
16954;SDS011;8594;52.052;8.354;2023-12-28T11:25:31;10.40;;;2.87;;
16954;SDS011;8594;52.052;8.354;2023-12-28T11:27:58;12.97;;;2.73;;
16954;SDS011;8594;52.052;8.354;2023-12-28T11:30:27;18.10;;;3.17;;
16954;SDS011;8594;52.052;8.354;2023-12-28T11:32:55;11.47;;;2.73;;
16954;SDS011;8594;52.052;8.354;2023-12-28T11:35:23;13.97;;;2.53;;
16954;SDS011;8594;52.052;8.354;2023-12-28T11:37:59;14.37;;;2.67;;
16954;SDS011;8594;52.052;8.354;2023-12-28T11:40:31;10.03;;;2.90;;
16954;SDS011;8594;52.052;8.354;2023-12-28T11:43:06;14.70;;;3.33;;
16954;SDS011;8594;52.052;8.354;2023-12-28T11:45:48;13.07;;;2.80;;
16954;SDS011;8594;52.052;8.354;2023-12-28T11:48:23;11.30;;;2.53;;
16954;SDS011;8594;52.052;8.354;2023-12-28T11:50:52;10.53;;;2.57;;
16954;SDS011;8594;52.052;8.354;2023-12-28T11:53:23;15.50;;;2.57;;
16954;SDS011;8594;52.052;8.354;2023-12-28T11:55:50;16.53;;;2.77;;
16954;SDS011;8594;52.052;8.354;2023-12-28T11:58:18;16.23;;;2.73;;
16954;SDS011;8594;52.052;8.354;2023-12-28T12:00:45;10.17;;;2.70;;
16954;SDS011;8594;52.052;8.354;2023-12-28T12:03:15;10.90;;;2.60;;
16954;SDS011;8594;52.052;8.354;2023-12-28T12:05:41;12.63;;;2.87;;
16954;SDS011;8594;52.052;8.354;2023-12-28T12:08:09;10.67;;;2.50;;
16954;SDS011;8594;52.052;8.354;2023-12-28T12:10:39;10.67;;;2.57;;
16954;SDS011;8594;52.052;8.354;2023-12-28T12:13:06;11.47;;;2.73;;
16954;SDS011;8594;52.052;8.354;2023-12-28T12:15:33;14.03;;;2.87;;
16954;SDS011;8594;52.052;8.354;2023-12-28T12:18:03;15.93;;;2.63;;
16954;SDS011;8594;52.052;8.354;2023-12-28T12:20:31;9.30;;;2.60;;
16954;SDS011;8594;52.052;8.354;2023-12-28T12:22:59;13.77;;;2.60;;
16954;SDS011;8594;52.052;8.354;2023-12-28T12:25:28;16.63;;;3.07;;
16954;SDS011;8594;52.052;8.354;2023-12-28T12:27:55;9.73;;;2.20;;
16954;SDS011;8594;52.052;8.354;2023-12-28T12:30:22;9.87;;;2.47;;
16954;SDS011;8594;52.052;8.354;2023-12-28T12:32:49;13.63;;;2.40;;
16954;SDS011;8594;52.052;8.354;2023-12-28T12:35:17;11.57;;;2.30;;
16954;SDS011;8594;52.052;8.354;2023-12-28T12:37:46;13.73;;;3.47;;
16954;SDS011;8594;52.052;8.354;2023-12-28T12:40:15;12.77;;;3.03;;
16954;SDS011;8594;52.052;8.354;2023-12-28T12:42:51;15.43;;;2.97;;
16954;SDS011;8594;52.052;8.354;2023-12-28T12:45:19;13.87;;;2.27;;
16954;SDS011;8594;52.052;8.354;2023-12-28T12:47:46;13.77;;;2.80;;
16954;SDS011;8594;52.052;8.354;2023-12-28T12:50:15;9.87;;;2.23;;
16954;SDS011;8594;52.052;8.354;2023-12-28T12:52:43;14.63;;;2.87;;
16954;SDS011;8594;52.052;8.354;2023-12-28T12:55:10;11.10;;;2.63;;
16954;SDS011;8594;52.052;8.354;2023-12-28T12:57:38;10.03;;;2.10;;
16954;SDS011;8594;52.052;8.354;2023-12-28T13:00:06;11.07;;;2.40;;
16954;SDS011;8594;52.052;8.354;2023-12-28T13:02:36;6.57;;;2.40;;
16954;SDS011;8594;52.052;8.354;2023-12-28T13:05:05;8.63;;;2.27;;
16954;SDS011;8594;52.052;8.354;2023-12-28T13:07:34;10.00;;;2.40;;
16954;SDS011;8594;52.052;8.354;2023-12-28T13:10:01;8.47;;;2.57;;
16954;SDS011;8594;52.052;8.354;2023-12-28T13:12:28;15.33;;;2.70;;
16954;SDS011;8594;52.052;8.354;2023-12-28T13:14:55;6.93;;;2.40;;
16954;SDS011;8594;52.052;8.354;2023-12-28T13:17:22;12.80;;;3.43;;
16954;SDS011;8594;52.052;8.354;2023-12-28T13:19:49;8.67;;;2.57;;
16954;SDS011;8594;52.052;8.354;2023-12-28T13:22:15;14.93;;;2.33;;
16954;SDS011;8594;52.052;8.354;2023-12-28T13:24:43;6.90;;;2.17;;
16954;SDS011;8594;52.052;8.354;2023-12-28T13:27:10;11.57;;;2.50;;
16954;SDS011;8594;52.052;8.354;2023-12-28T13:29:37;8.20;;;2.60;;
16954;SDS011;8594;52.052;8.354;2023-12-28T13:32:04;10.50;;;2.20;;
16954;SDS011;8594;52.052;8.354;2023-12-28T13:34:32;6.67;;;2.10;;
16954;SDS011;8594;52.052;8.354;2023-12-28T13:36:58;13.83;;;3.03;;
16954;SDS011;8594;52.052;8.354;2023-12-28T13:39:27;9.43;;;2.30;;
16954;SDS011;8594;52.052;8.354;2023-12-28T13:41:55;7.53;;;2.50;;
16954;SDS011;8594;52.052;8.354;2023-12-28T13:44:22;9.83;;;2.50;;
16954;SDS011;8594;52.052;8.354;2023-12-28T13:46:49;8.73;;;2.33;;
16954;SDS011;8594;52.052;8.354;2023-12-28T13:49:18;9.17;;;2.33;;
16954;SDS011;8594;52.052;8.354;2023-12-28T13:51:45;9.63;;;2.30;;
16954;SDS011;8594;52.052;8.354;2023-12-28T13:54:12;11.07;;;2.43;;
16954;SDS011;8594;52.052;8.354;2023-12-28T13:56:39;14.07;;;3.07;;
16954;SDS011;8594;52.052;8.354;2023-12-28T13:59:08;10.70;;;2.33;;
16954;SDS011;8594;52.052;8.354;2023-12-28T14:01:34;10.67;;;2.80;;
16954;SDS011;8594;52.052;8.354;2023-12-28T14:04:01;9.23;;;2.43;;
16954;SDS011;8594;52.052;8.354;2023-12-28T14:06:28;9.23;;;2.40;;
16954;SDS011;8594;52.052;8.354;2023-12-28T14:08:55;11.80;;;2.13;;
16954;SDS011;8594;52.052;8.354;2023-12-28T14:11:22;12.37;;;2.50;;
16954;SDS011;8594;52.052;8.354;2023-12-28T14:13:49;8.10;;;2.40;;
16954;SDS011;8594;52.052;8.354;2023-12-28T14:16:17;12.57;;;2.40;;
16954;SDS011;8594;52.052;8.354;2023-12-28T14:18:44;11.33;;;2.30;;
16954;SDS011;8594;52.052;8.354;2023-12-28T14:21:12;12.73;;;2.60;;
16954;SDS011;8594;52.052;8.354;2023-12-28T14:23:40;6.80;;;2.20;;
16954;SDS011;8594;52.052;8.354;2023-12-28T14:26:09;8.73;;;2.30;;
16954;SDS011;8594;52.052;8.354;2023-12-28T14:28:39;10.73;;;2.60;;
16954;SDS011;8594;52.052;8.354;2023-12-28T14:31:07;10.43;;;2.40;;
16954;SDS011;8594;52.052;8.354;2023-12-28T14:33:36;8.70;;;2.37;;
16954;SDS011;8594;52.052;8.354;2023-12-28T14:36:06;12.97;;;2.50;;
16954;SDS011;8594;52.052;8.354;2023-12-28T14:38:48;13.17;;;2.53;;
16954;SDS011;8594;52.052;8.354;2023-12-28T14:41:15;12.80;;;2.37;;
16954;SDS011;8594;52.052;8.354;2023-12-28T14:43:41;7.03;;;2.17;;
16954;SDS011;8594;52.052;8.354;2023-12-28T14:46:09;9.10;;;1.97;;
16954;SDS011;8594;52.052;8.354;2023-12-28T14:48:37;12.30;;;2.83;;
16954;SDS011;8594;52.052;8.354;2023-12-28T14:51:04;8.53;;;2.43;;
16954;SDS011;8594;52.052;8.354;2023-12-28T14:53:30;13.60;;;2.43;;
16954;SDS011;8594;52.052;8.354;2023-12-28T14:55:57;9.87;;;2.20;;
16954;SDS011;8594;52.052;8.354;2023-12-28T14:58:24;10.60;;;2.13;;
16954;SDS011;8594;52.052;8.354;2023-12-28T15:00:51;12.20;;;2.57;;
16954;SDS011;8594;52.052;8.354;2023-12-28T15:03:19;13.23;;;2.33;;